createdAt,value
2018-07-30T00:00:13.666Z,5.60
2018-07-30T00:01:17.763Z,5.25
2018-07-30T00:02:21.828Z,5.08
2018-07-30T00:03:25.894Z,5.28
2018-07-30T00:04:29.992Z,5.47
2018-07-30T00:05:34.057Z,5.55
2018-07-30T00:06:38.177Z,5.90
2018-07-30T00:07:42.623Z,4.80
2018-07-30T00:08:46.724Z,5.10
2018-07-30T00:09:50.766Z,5.17
2018-07-30T00:10:54.769Z,5.28
2018-07-30T00:11:58.941Z,5.47
2018-07-30T00:13:02.962Z,5.62
2018-07-30T00:14:07.140Z,5.58
2018-07-30T00:15:11.176Z,5.35
2018-07-30T00:16:15.218Z,5.62
2018-07-30T00:17:19.303Z,5.45
2018-07-30T00:18:23.373Z,5.65
2018-07-30T00:19:27.525Z,5.75
2018-07-30T00:20:31.653Z,5.60
2018-07-30T00:21:35.892Z,4.97
2018-07-30T00:22:39.969Z,5.97
2018-07-30T00:23:44.065Z,4.72
2018-07-30T00:24:48.129Z,5.80
2018-07-30T00:25:52.170Z,5.83
2018-07-30T00:26:55.941Z,5.72
2018-07-30T00:27:59.826Z,5.78
2018-07-30T00:29:03.948Z,5.20
2018-07-30T00:30:08.044Z,5.53
2018-07-30T00:31:12.165Z,5.30
2018-07-30T00:32:16.215Z,5.65
2018-07-30T00:33:20.303Z,5.67
2018-07-30T00:34:24.323Z,5.40
2018-07-30T00:35:28.416Z,5.42
2018-07-30T00:36:32.511Z,5.65
2018-07-30T00:37:36.543Z,5.90
2018-07-30T00:38:40.603Z,6.40
2018-07-30T00:39:44.668Z,6.05
2018-07-30T00:40:48.942Z,5.40
2018-07-30T00:41:52.966Z,5.25
2018-07-30T00:42:57.034Z,5.33
2018-07-30T00:44:01.095Z,5.83
2018-07-30T00:45:05.105Z,5.60
2018-07-30T00:46:09.179Z,6.20
2018-07-30T00:47:13.284Z,5.95
2018-07-30T00:48:17.368Z,5.42
2018-07-30T00:49:21.409Z,6.20
2018-07-30T00:50:25.470Z,5.62
2018-07-30T00:51:29.981Z,6.35
2018-07-30T00:52:34.030Z,5.42
2018-07-30T00:53:38.103Z,5.80
2018-07-30T00:54:42.182Z,5.55
2018-07-30T00:55:46.244Z,5.67
2018-07-30T00:56:50.363Z,5.65
2018-07-30T00:57:54.425Z,5.42
2018-07-30T00:58:58.553Z,5.53
2018-07-30T01:00:02.300Z,5.50
2018-07-30T01:01:06.251Z,5.47
2018-07-30T01:02:10.363Z,5.35
2018-07-30T01:03:14.411Z,5.33
2018-07-30T01:04:18.438Z,5.45
2018-07-30T01:05:22.520Z,6.00
2018-07-30T01:06:26.564Z,5.90
2018-07-30T01:07:30.656Z,5.50
2018-07-30T01:08:34.739Z,5.83
2018-07-30T01:09:38.940Z,5.45
2018-07-30T01:10:43.022Z,6.25
2018-07-30T01:11:47.052Z,5.47
2018-07-30T01:12:51.155Z,5.87
2018-07-30T01:13:55.223Z,6.08
2018-07-30T01:14:59.318Z,6.65
2018-07-30T01:16:03.407Z,5.55
2018-07-30T01:17:07.457Z,5.95
2018-07-30T01:18:11.872Z,5.85
2018-07-30T01:19:15.888Z,6.00
2018-07-30T01:20:19.886Z,6.22
2018-07-30T01:21:24.065Z,5.72
2018-07-30T01:22:28.115Z,5.83
2018-07-30T01:23:32.194Z,5.97
2018-07-30T01:24:36.305Z,5.40
2018-07-30T01:25:40.492Z,5.60
2018-07-30T01:26:44.617Z,5.70
2018-07-30T01:27:48.710Z,5.53
2018-07-30T01:28:53.030Z,5.47
2018-07-30T01:29:56.821Z,5.00
2018-07-30T01:31:06.515Z,5.72
2018-07-30T01:32:10.487Z,5.20
2018-07-30T01:33:14.578Z,5.62
2018-07-30T01:34:18.649Z,5.35
2018-07-30T01:35:22.752Z,6.22
2018-07-30T01:36:26.834Z,5.55
2018-07-30T01:37:30.965Z,5.55
2018-07-30T01:38:35.023Z,5.12
2018-07-30T01:39:39.112Z,5.12
2018-07-30T01:40:43.269Z,5.50
2018-07-30T01:41:47.302Z,5.25
2018-07-30T01:42:51.412Z,5.03
2018-07-30T01:43:55.165Z,5.65
2018-07-30T01:44:59.101Z,5.10
2018-07-30T01:46:04.041Z,5.62
2018-07-30T01:47:07.843Z,5.58
2018-07-30T01:48:11.769Z,5.35
2018-07-30T01:49:15.814Z,5.35
2018-07-30T01:50:19.824Z,5.60
2018-07-30T01:51:23.935Z,5.00
2018-07-30T01:52:28.064Z,5.08
2018-07-30T01:53:32.180Z,5.85
2018-07-30T01:54:36.253Z,5.20
2018-07-30T01:55:40.410Z,5.35
2018-07-30T01:56:44.586Z,5.08
2018-07-30T01:57:48.638Z,5.20
2018-07-30T01:58:52.824Z,5.12
2018-07-30T01:59:56.903Z,5.28
2018-07-30T02:01:01.024Z,5.22
2018-07-30T02:02:05.228Z,4.85
2018-07-30T02:03:09.296Z,5.65
2018-07-30T02:04:13.332Z,5.67
2018-07-30T02:05:17.378Z,5.40
2018-07-30T02:06:21.525Z,5.58
2018-07-30T02:07:25.620Z,4.83
2018-07-30T02:08:29.453Z,5.20
2018-07-30T02:09:33.411Z,5.70
2018-07-30T02:10:37.475Z,5.15
2018-07-30T02:11:41.540Z,5.30
2018-07-30T02:12:45.685Z,5.33
2018-07-30T02:13:49.851Z,4.87
2018-07-30T02:14:53.965Z,5.20
2018-07-30T02:15:58.049Z,5.30
2018-07-30T02:17:02.137Z,5.42
2018-07-30T02:18:06.257Z,5.08
2018-07-30T02:19:10.352Z,5.17
2018-07-30T02:20:14.701Z,4.53
2018-07-30T02:21:18.871Z,4.83
2018-07-30T02:22:22.987Z,5.40
2018-07-30T02:23:27.040Z,5.08
2018-07-30T02:24:31.230Z,5.58
2018-07-30T02:25:35.282Z,5.45
2018-07-30T02:26:39.389Z,4.60
2018-07-30T02:27:43.405Z,5.50
2018-07-30T02:28:47.478Z,5.00
2018-07-30T02:29:51.579Z,4.80
2018-07-30T02:30:55.690Z,5.17
2018-07-30T02:31:59.752Z,5.15
2018-07-30T02:33:03.858Z,4.85
2018-07-30T02:34:08.447Z,4.83
2018-07-30T02:35:12.495Z,5.30
2018-07-30T02:36:16.604Z,4.90
2018-07-30T02:37:20.655Z,5.12
2018-07-30T02:38:24.818Z,5.45
2018-07-30T02:39:28.868Z,5.00
2018-07-30T02:40:32.944Z,4.87
2018-07-30T02:41:37.132Z,5.17
2018-07-30T02:42:41.150Z,5.15
2018-07-30T02:43:45.293Z,5.20
2018-07-30T02:44:49.316Z,4.58
2018-07-30T02:45:53.414Z,5.15
2018-07-30T02:46:57.730Z,4.80
2018-07-30T02:48:01.743Z,5.17
2018-07-30T02:49:05.942Z,4.72
2018-07-30T02:50:09.943Z,4.83
2018-07-30T02:51:13.993Z,5.45
2018-07-30T02:52:18.046Z,5.45
2018-07-30T02:53:22.182Z,5.50
2018-07-30T02:54:26.321Z,4.80
2018-07-30T02:55:30.443Z,4.78
2018-07-30T02:56:34.548Z,5.03
2018-07-30T02:57:38.700Z,4.83
2018-07-30T02:58:42.870Z,5.10
2018-07-30T02:59:47.315Z,4.83
2018-07-30T03:00:51.462Z,4.97
2018-07-30T03:01:55.733Z,5.22
2018-07-30T03:02:59.771Z,4.85
2018-07-30T03:04:03.911Z,5.10
2018-07-30T03:05:07.980Z,5.50
2018-07-30T03:06:12.007Z,5.03
2018-07-30T03:07:16.112Z,5.67
2018-07-30T03:08:20.184Z,5.05
2018-07-30T03:09:24.324Z,5.00
2018-07-30T03:10:28.412Z,4.90
2018-07-30T03:11:32.454Z,5.25
2018-07-30T03:12:36.498Z,5.10
2018-07-30T03:13:40.544Z,5.00
2018-07-30T03:14:44.635Z,5.00
2018-07-30T03:15:48.704Z,4.72
2018-07-30T03:16:52.760Z,5.15
2018-07-30T03:17:56.818Z,4.90
2018-07-30T03:19:01.001Z,5.20
2018-07-30T03:20:05.374Z,5.00
2018-07-30T03:21:09.425Z,5.45
2018-07-30T03:22:13.231Z,4.95
2018-07-30T03:23:17.177Z,4.53
2018-07-30T03:24:21.256Z,4.90
2018-07-30T03:25:25.313Z,5.05
2018-07-30T03:26:29.388Z,4.72
2018-07-30T03:27:33.507Z,5.20
2018-07-30T03:28:37.621Z,5.22
2018-07-30T03:29:41.636Z,5.03
2018-07-30T03:30:45.456Z,5.35
2018-07-30T03:31:49.448Z,5.08
2018-07-30T03:32:53.575Z,5.08
2018-07-30T03:33:57.677Z,5.00
2018-07-30T03:35:01.766Z,5.08
2018-07-30T03:36:06.020Z,4.90
2018-07-30T03:37:10.063Z,4.42
2018-07-30T03:38:14.153Z,4.70
2018-07-30T03:39:18.253Z,4.90
2018-07-30T03:40:22.352Z,5.03
2018-07-30T03:41:26.501Z,4.67
2018-07-30T03:42:30.604Z,4.97
2018-07-30T03:43:34.739Z,5.00
2018-07-30T03:44:38.842Z,4.92
2018-07-30T03:45:42.942Z,4.42
2018-07-30T03:46:46.974Z,4.92
2018-07-30T03:47:51.131Z,4.80
2018-07-30T03:48:55.217Z,5.10
2018-07-30T03:49:59.255Z,4.80
2018-07-30T03:51:03.383Z,5.20
2018-07-30T03:52:07.405Z,5.05
2018-07-30T03:53:11.562Z,5.00
2018-07-30T03:54:15.690Z,5.30
2018-07-30T03:55:19.699Z,5.20
2018-07-30T03:56:23.857Z,4.87
2018-07-30T03:57:27.933Z,4.97
2018-07-30T03:58:31.967Z,4.95
2018-07-30T03:59:36.002Z,4.92
2018-07-30T04:00:40.112Z,5.00
2018-07-30T04:01:44.173Z,4.70
2018-07-30T04:02:48.314Z,4.55
2018-07-30T04:03:52.513Z,4.97
2018-07-30T04:04:56.563Z,4.80
2018-07-30T04:06:00.747Z,5.20
2018-07-30T04:07:04.843Z,4.70
2018-07-30T04:08:08.919Z,5.03
2018-07-30T04:09:13.045Z,4.80
2018-07-30T04:10:17.136Z,5.12
2018-07-30T04:11:21.479Z,4.75
2018-07-30T04:12:25.645Z,5.17
2018-07-30T04:13:29.770Z,4.80
2018-07-30T04:14:33.893Z,4.80
2018-07-30T04:15:37.982Z,5.00
2018-07-30T04:16:50.941Z,5.30
2018-07-30T04:17:55.053Z,5.30
2018-07-30T04:18:59.075Z,4.47
2018-07-30T04:20:03.253Z,4.72
2018-07-30T04:21:07.267Z,4.97
2018-07-30T04:22:11.361Z,5.05
2018-07-30T04:23:15.393Z,5.35
2018-07-30T04:24:19.498Z,4.67
2018-07-30T04:25:23.592Z,5.15
2018-07-30T04:26:27.677Z,4.95
2018-07-30T04:27:31.739Z,5.42
2018-07-30T04:28:35.743Z,5.22
2018-07-30T04:29:39.914Z,5.40
2018-07-30T04:30:44.028Z,5.37
2018-07-30T04:31:48.070Z,4.95
2018-07-30T04:32:52.257Z,4.53
2018-07-30T04:33:55.999Z,5.10
2018-07-30T04:34:59.951Z,5.42
2018-07-30T04:36:04.021Z,5.00
2018-07-30T04:37:08.134Z,4.55
2018-07-30T04:38:12.291Z,4.83
2018-07-30T04:39:16.296Z,5.35
2018-07-30T04:40:20.377Z,5.22
2018-07-30T04:41:24.663Z,4.78
2018-07-30T04:42:28.820Z,5.12
2018-07-30T04:43:32.888Z,5.17
2018-07-30T04:44:36.715Z,5.78
2018-07-30T04:45:40.663Z,4.97
2018-07-30T04:46:44.741Z,5.17
2018-07-30T04:47:48.886Z,4.65
2018-07-30T04:48:53.179Z,4.78
2018-07-30T04:49:57.248Z,5.03
2018-07-30T04:51:01.602Z,4.55
2018-07-30T04:52:05.413Z,5.10
2018-07-30T04:53:09.571Z,4.80
2018-07-30T04:54:13.593Z,5.70
2018-07-30T04:55:17.702Z,4.80
2018-07-30T04:56:21.748Z,4.67
2018-07-30T04:57:25.821Z,5.00
2018-07-30T04:58:29.967Z,4.80
2018-07-30T04:59:34.044Z,5.53
2018-07-30T05:00:37.845Z,5.10
2018-07-30T05:01:41.863Z,5.30
2018-07-30T05:02:45.988Z,5.15
2018-07-30T05:03:50.144Z,5.28
2018-07-30T05:04:54.197Z,5.17
2018-07-30T05:05:58.260Z,4.97
2018-07-30T05:07:02.899Z,5.10
2018-07-30T05:08:07.117Z,4.75
2018-07-30T05:09:11.205Z,4.72
2018-07-30T05:10:15.312Z,4.90
2018-07-30T05:11:19.506Z,4.97
2018-07-30T05:12:23.758Z,4.78
2018-07-30T05:13:27.781Z,5.17
2018-07-30T05:14:31.879Z,5.10
2018-07-30T05:15:36.008Z,5.12
2018-07-30T05:16:40.107Z,5.50
2018-07-30T05:17:44.153Z,5.60
2018-07-30T05:18:48.245Z,5.58
2018-07-30T05:19:52.301Z,5.53
2018-07-30T05:20:56.372Z,6.10
2018-07-30T05:22:00.423Z,4.95
2018-07-30T05:23:04.471Z,7.37
2018-07-30T05:24:08.853Z,5.35
2018-07-30T05:25:12.892Z,4.87
2018-07-30T05:26:17.013Z,5.58
2018-07-30T05:27:21.116Z,5.25
2018-07-30T05:28:25.156Z,5.25
2018-07-30T05:29:29.739Z,6.17
2018-07-30T05:30:33.753Z,5.87
2018-07-30T05:31:37.874Z,5.65
2018-07-30T05:32:41.881Z,5.22
2018-07-30T05:33:45.936Z,5.08
2018-07-30T05:34:50.007Z,5.80
2018-07-30T05:35:54.168Z,6.58
2018-07-30T05:36:58.738Z,5.70
2018-07-30T05:38:02.760Z,5.78
2018-07-30T05:39:08.390Z,8.93
2018-07-30T05:40:12.465Z,5.70
2018-07-30T05:41:16.542Z,6.30
2018-07-30T05:42:20.551Z,5.33
2018-07-30T05:43:24.612Z,6.08
2018-07-30T05:44:28.674Z,6.80
2018-07-30T05:45:32.908Z,5.40
2018-07-30T05:46:37.100Z,6.65
2018-07-30T05:47:41.108Z,5.20
2018-07-30T05:48:45.184Z,5.10
2018-07-30T05:49:49.254Z,5.00
2018-07-30T05:50:53.492Z,5.65
2018-07-30T05:51:57.488Z,5.53
2018-07-30T05:53:01.593Z,5.28
2018-07-30T05:54:05.740Z,4.85
2018-07-30T05:55:09.789Z,6.70
2018-07-30T05:56:13.815Z,5.35
2018-07-30T05:57:17.909Z,4.72
2018-07-30T05:58:22.029Z,4.80
2018-07-30T05:59:26.193Z,4.62
2018-07-30T06:00:29.886Z,5.10
2018-07-30T06:01:33.853Z,5.00
2018-07-30T06:02:37.959Z,4.70
2018-07-30T06:03:42.102Z,4.40
2018-07-30T06:04:46.184Z,4.87
2018-07-30T06:05:50.313Z,4.92
2018-07-30T06:06:54.372Z,5.03
2018-07-30T06:07:58.501Z,7.03
2018-07-30T06:09:02.629Z,4.75
2018-07-30T06:10:06.838Z,4.75
2018-07-30T06:11:10.892Z,6.47
2018-07-30T06:12:15.128Z,5.20
2018-07-30T06:13:19.246Z,4.83
2018-07-30T06:14:23.344Z,4.67
2018-07-30T06:15:27.430Z,4.95
2018-07-30T06:16:31.503Z,5.22
2018-07-30T06:17:35.636Z,6.65
2018-07-30T06:18:39.696Z,5.03
2018-07-30T06:19:43.786Z,4.90
2018-07-30T06:20:47.953Z,5.60
2018-07-30T06:21:51.969Z,4.75
2018-07-30T06:22:56.274Z,4.83
2018-07-30T06:24:00.322Z,5.65
2018-07-30T06:25:05.231Z,5.03
2018-07-30T06:26:09.365Z,5.10
2018-07-30T06:27:13.509Z,4.70
2018-07-30T06:28:17.709Z,4.47
2018-07-30T06:29:21.818Z,4.70
2018-07-30T06:30:25.874Z,4.42
2018-07-30T06:31:30.021Z,5.20
2018-07-30T06:32:34.124Z,4.90
2018-07-30T06:33:38.273Z,4.58
2018-07-30T06:34:42.312Z,4.10
2018-07-30T06:35:46.465Z,4.58
2018-07-30T06:36:50.230Z,4.15
2018-07-30T06:37:54.188Z,4.60
2018-07-30T06:38:58.271Z,4.50
2018-07-30T06:40:02.422Z,4.90
2018-07-30T06:41:06.537Z,4.00
2018-07-30T06:42:10.666Z,5.37
2018-07-30T06:43:14.926Z,4.63
2018-07-30T06:44:18.953Z,4.03
2018-07-30T06:45:22.981Z,4.28
2018-07-30T06:46:27.078Z,4.15
2018-07-30T06:47:31.188Z,4.22
2018-07-30T06:48:35.455Z,4.08
2018-07-30T06:49:39.786Z,4.80
2018-07-30T06:50:44.080Z,4.08
2018-07-30T06:51:47.858Z,4.30
2018-07-30T06:52:51.804Z,4.65
2018-07-30T06:54:02.622Z,4.05
2018-07-30T06:55:07.735Z,5.10
2018-07-30T06:56:11.918Z,4.58
2018-07-30T06:57:15.942Z,4.15
2018-07-30T06:58:19.724Z,4.50
2018-07-30T06:59:23.646Z,4.10
2018-07-30T07:00:27.676Z,4.10
2018-07-30T07:01:31.498Z,4.40
2018-07-30T07:02:35.540Z,4.10
2018-07-30T07:03:39.623Z,4.67
2018-07-30T07:04:43.763Z,4.15
2018-07-30T07:05:47.800Z,4.10
2018-07-30T07:06:51.936Z,4.27
2018-07-30T07:07:56.016Z,4.65
2018-07-30T07:09:00.103Z,4.30
2018-07-30T07:10:05.349Z,4.50
2018-07-30T07:11:09.177Z,4.53
2018-07-30T07:12:13.168Z,4.60
2018-07-30T07:13:17.268Z,4.22
2018-07-30T07:14:21.380Z,4.15
2018-07-30T07:15:25.463Z,4.77
2018-07-30T07:16:29.615Z,4.15
2018-07-30T07:17:33.751Z,4.80
2018-07-30T07:18:37.801Z,4.70
2018-07-30T07:19:41.898Z,4.30
2018-07-30T07:20:46.039Z,8.28
2018-07-30T07:21:50.184Z,6.20
2018-07-30T07:22:54.254Z,5.20
2018-07-30T07:23:58.336Z,5.40
2018-07-30T07:25:02.430Z,4.95
2018-07-30T07:26:06.831Z,4.58
2018-07-30T07:27:10.716Z,4.50
2018-07-30T07:28:14.560Z,4.90
2018-07-30T07:29:18.594Z,4.45
2018-07-30T07:30:22.911Z,4.37
2018-07-30T07:31:26.958Z,4.95
2018-07-30T07:32:30.972Z,4.10
2018-07-30T07:33:35.092Z,3.93
2018-07-30T07:34:39.160Z,4.17
2018-07-30T07:35:43.222Z,4.30
2018-07-30T07:36:47.365Z,4.67
2018-07-30T07:37:51.450Z,4.07
2018-07-30T07:38:55.565Z,4.07
2018-07-30T07:39:59.686Z,4.80
2018-07-30T07:41:03.789Z,4.33
2018-07-30T07:42:07.875Z,4.77
2018-07-30T07:43:12.017Z,4.43
2018-07-30T07:44:16.118Z,4.40
2018-07-30T07:45:20.149Z,4.10
2018-07-30T07:46:24.289Z,4.50
2018-07-30T07:47:28.428Z,4.60
2018-07-30T07:48:32.748Z,4.57
2018-07-30T07:49:36.848Z,4.47
2018-07-30T07:50:40.980Z,4.33
2018-07-30T07:51:44.980Z,4.27
2018-07-30T07:52:49.006Z,4.50
2018-07-30T07:53:53.068Z,4.60
2018-07-30T07:54:57.147Z,4.90
2018-07-30T07:56:01.200Z,4.23
2018-07-30T07:57:05.307Z,4.53
2018-07-30T07:58:09.465Z,4.37
2018-07-30T07:59:13.561Z,4.13
2018-07-30T08:00:17.687Z,4.03
2018-07-30T08:01:21.752Z,4.00
2018-07-30T08:02:25.881Z,4.03
2018-07-30T08:03:30.183Z,4.30
2018-07-30T08:04:34.011Z,4.30
2018-07-30T08:05:38.073Z,4.40
2018-07-30T08:06:42.165Z,4.33
2018-07-30T08:07:46.235Z,4.77
2018-07-30T08:08:50.292Z,4.20
2018-07-30T08:09:55.013Z,4.40
2018-07-30T08:10:58.989Z,4.40
2018-07-30T08:12:03.057Z,4.53
2018-07-30T08:13:07.363Z,4.40
2018-07-30T08:14:11.403Z,4.50
2018-07-30T08:15:15.508Z,4.23
2018-07-30T08:16:19.653Z,4.23
2018-07-30T08:17:23.873Z,4.57
2018-07-30T08:18:27.992Z,5.13
2018-07-30T08:19:32.143Z,4.17
2018-07-30T08:20:36.182Z,4.23
2018-07-30T08:21:40.329Z,4.80
2018-07-30T08:22:44.411Z,4.10
2018-07-30T08:23:48.500Z,4.17
2018-07-30T08:24:52.969Z,4.63
2018-07-30T08:25:57.067Z,3.83
2018-07-30T08:27:01.148Z,4.23
2018-07-30T08:28:05.249Z,4.80
2018-07-30T08:29:09.438Z,4.60
2018-07-30T08:30:13.520Z,4.13
2018-07-30T08:31:17.607Z,4.40
2018-07-30T08:32:21.640Z,4.53
2018-07-30T08:33:25.788Z,4.43
2018-07-30T08:34:29.891Z,4.50
2018-07-30T08:35:33.890Z,4.00
2018-07-30T08:36:37.911Z,3.97
2018-07-30T08:37:42.012Z,4.07
2018-07-30T08:38:46.105Z,4.10
2018-07-30T08:39:50.240Z,4.27
2018-07-30T08:40:54.250Z,3.80
2018-07-30T08:41:58.286Z,5.70
2018-07-30T08:43:02.950Z,3.93
2018-07-30T08:44:07.133Z,4.03
2018-07-30T08:45:11.273Z,4.37
2018-07-30T08:46:15.430Z,4.27
2018-07-30T08:47:19.509Z,4.40
2018-07-30T08:48:23.682Z,4.23
2018-07-30T08:49:27.877Z,4.17
2018-07-30T08:50:31.973Z,3.90
2018-07-30T08:51:36.106Z,4.03
2018-07-30T08:52:40.234Z,4.40
2018-07-30T08:53:44.436Z,4.17
2018-07-30T08:54:48.589Z,4.10
2018-07-30T08:55:52.723Z,4.23
2018-07-30T08:56:56.814Z,3.90
2018-07-30T08:58:00.944Z,4.43
2018-07-30T08:59:06.063Z,4.17
2018-07-30T09:00:10.762Z,4.40
2018-07-30T09:01:14.802Z,4.50
2018-07-30T09:02:18.998Z,4.20
2018-07-30T09:03:22.747Z,4.33
2018-07-30T09:04:27.001Z,4.30
2018-07-30T09:05:31.611Z,4.30
2018-07-30T09:06:35.627Z,4.70
2018-07-30T09:07:39.745Z,4.23
2018-07-30T09:08:43.917Z,4.50
2018-07-30T09:09:48.025Z,4.60
2018-07-30T09:10:52.184Z,4.07
2018-07-30T09:11:56.487Z,4.13
2018-07-30T09:13:00.588Z,4.00
2018-07-30T09:14:04.652Z,4.27
2018-07-30T09:15:09.060Z,4.37
2018-07-30T09:16:13.488Z,4.63
2018-07-30T09:17:18.117Z,4.47
2018-07-30T09:18:22.300Z,4.60
2018-07-30T09:19:26.331Z,4.60
2018-07-30T09:20:30.467Z,4.30
2018-07-30T09:21:34.725Z,4.30
2018-07-30T09:22:39.006Z,5.63
2018-07-30T09:23:43.119Z,4.40
2018-07-30T09:24:47.282Z,4.60
2018-07-30T09:25:51.332Z,4.83
2018-07-30T09:26:55.508Z,4.17
2018-07-30T09:27:59.595Z,4.40
2018-07-30T09:29:03.848Z,4.53
2018-07-30T09:30:07.951Z,4.20
2018-07-30T09:31:12.020Z,4.47
2018-07-30T09:32:16.166Z,4.57
2018-07-30T09:33:20.387Z,4.63
2018-07-30T09:34:24.487Z,4.30
2018-07-30T09:35:28.748Z,4.20
2018-07-30T09:36:32.822Z,4.70
2018-07-30T09:37:36.876Z,4.27
2018-07-30T09:38:40.950Z,4.67
2018-07-30T09:39:45.234Z,5.47
2018-07-30T09:40:49.325Z,4.63
2018-07-30T09:41:53.358Z,4.23
2018-07-30T09:42:57.138Z,4.23
2018-07-30T09:44:07.546Z,5.00
2018-07-30T09:45:11.814Z,4.33
2018-07-30T09:46:15.992Z,4.03
2018-07-30T09:47:20.211Z,4.30
2018-07-30T09:48:24.317Z,3.97
2018-07-30T09:49:28.418Z,4.43
2018-07-30T09:50:32.480Z,4.50
2018-07-30T09:51:36.685Z,4.00
2018-07-30T09:52:40.798Z,4.43
2018-07-30T09:53:44.906Z,5.10
2018-07-30T09:54:49.046Z,5.03
2018-07-30T09:55:52.843Z,4.20
2018-07-30T09:56:56.755Z,3.87
2018-07-30T09:58:00.872Z,3.97
2018-07-30T09:59:04.994Z,4.07
2018-07-30T10:00:09.799Z,4.70
2018-07-30T10:01:32.473Z,3.90
2018-07-30T10:02:36.567Z,4.40
2018-07-30T10:03:40.725Z,4.17
2018-07-30T10:04:45.289Z,4.00
2018-07-30T10:05:49.093Z,3.90
2018-07-30T10:06:53.163Z,4.13
2018-07-30T10:07:57.242Z,3.83
2018-07-30T10:09:01.292Z,4.00
2018-07-30T10:10:05.318Z,4.20
2018-07-30T10:11:09.488Z,4.60
2018-07-30T10:12:13.490Z,4.23
2018-07-30T10:13:17.574Z,4.10
2018-07-30T10:14:21.697Z,4.10
2018-07-30T10:15:26.136Z,3.97
2018-07-30T10:16:30.203Z,4.37
2018-07-30T10:17:34.273Z,3.70
2018-07-30T10:18:38.632Z,3.67
2018-07-30T10:19:42.713Z,4.00
2018-07-30T10:20:46.810Z,4.20
2018-07-30T10:21:50.841Z,4.13
2018-07-30T10:22:54.900Z,4.00
2018-07-30T10:23:59.230Z,3.73
2018-07-30T10:25:03.352Z,4.03
2018-07-30T10:26:07.381Z,3.70
2018-07-30T10:27:11.456Z,3.90
2018-07-30T10:28:15.530Z,3.97
2018-07-30T10:29:19.605Z,3.90
2018-07-30T10:30:23.694Z,3.70
2018-07-30T10:31:27.745Z,4.90
2018-07-30T10:32:31.812Z,4.47
2018-07-30T10:33:36.303Z,3.97
2018-07-30T10:34:40.362Z,4.03
2018-07-30T10:35:44.460Z,3.40
2018-07-30T10:36:48.969Z,4.00
2018-07-30T10:37:52.818Z,4.00
2018-07-30T10:38:56.708Z,3.87
2018-07-30T10:40:00.816Z,4.10
2018-07-30T10:41:04.873Z,4.20
2018-07-30T10:42:09.020Z,4.20
2018-07-30T10:43:13.170Z,4.00
2018-07-30T10:44:17.226Z,4.10
2018-07-30T10:45:21.708Z,4.00
2018-07-30T10:46:25.778Z,4.20
2018-07-30T10:47:29.983Z,3.83
2018-07-30T10:48:34.191Z,3.93
2018-07-30T10:49:38.634Z,3.43
2018-07-30T10:50:42.691Z,4.27
2018-07-30T10:51:46.873Z,3.70
2018-07-30T10:52:51.168Z,5.45
2018-07-30T10:53:55.347Z,3.93
2018-07-30T10:54:59.413Z,3.60
2018-07-30T10:56:03.473Z,4.03
2018-07-30T10:57:08.067Z,3.92
2018-07-30T10:58:12.422Z,4.15
2018-07-30T10:59:17.794Z,6.28
2018-07-30T11:00:21.905Z,4.65
2018-07-30T11:01:26.037Z,6.62
2018-07-30T11:02:30.166Z,9.18
2018-07-30T11:03:34.259Z,6.33
2018-07-30T11:04:41.631Z,5.80
2018-07-30T11:05:45.742Z,4.20
2018-07-30T11:06:49.844Z,3.70
2018-07-30T11:07:54.111Z,3.72
2018-07-30T11:08:58.081Z,3.22
2018-07-30T11:10:02.220Z,3.45
2018-07-30T11:11:06.627Z,3.30
2018-07-30T11:12:10.772Z,3.30
2018-07-30T11:13:14.870Z,3.62
2018-07-30T11:14:18.971Z,3.50
2018-07-30T11:15:23.319Z,3.40
2018-07-30T11:16:27.522Z,3.90
2018-07-30T11:17:31.564Z,3.70
2018-07-30T11:18:35.657Z,3.20
2018-07-30T11:19:39.774Z,3.50
2018-07-30T11:20:43.854Z,3.37
2018-07-30T11:21:48.014Z,3.62
2018-07-30T11:22:52.035Z,3.50
2018-07-30T11:23:55.859Z,3.58
2018-07-30T11:25:00.151Z,3.85
2018-07-30T11:26:04.305Z,4.60
2018-07-30T11:27:08.405Z,3.58
2018-07-30T11:28:12.604Z,3.42
2018-07-30T11:29:16.683Z,3.25
2018-07-30T11:30:20.894Z,3.37
2018-07-30T11:31:25.064Z,3.70
2018-07-30T11:32:29.029Z,3.30
2018-07-30T11:33:33.039Z,3.45
2018-07-30T11:34:37.102Z,3.42
2018-07-30T11:35:41.224Z,3.47
2018-07-30T11:36:45.315Z,3.67
2018-07-30T11:37:49.408Z,4.20
2018-07-30T11:38:53.545Z,3.37
2018-07-30T11:39:58.697Z,3.60
2018-07-30T11:41:03.046Z,3.33
2018-07-30T11:42:07.132Z,3.60
2018-07-30T11:43:11.265Z,3.65
2018-07-30T11:44:15.340Z,4.58
2018-07-30T11:45:19.490Z,3.10
2018-07-30T11:46:23.603Z,3.35
2018-07-30T11:47:27.660Z,3.35
2018-07-30T11:48:31.939Z,3.33
2018-07-30T11:49:37.150Z,3.45
2018-07-30T11:50:41.212Z,3.15
2018-07-30T11:51:45.308Z,3.47
2018-07-30T11:52:50.017Z,3.27
2018-07-30T11:53:54.146Z,3.25
2018-07-30T11:54:58.252Z,3.45
2018-07-30T11:56:03.526Z,3.20
2018-07-30T11:57:07.612Z,3.45
2018-07-30T11:58:12.099Z,3.25
2018-07-30T11:59:16.378Z,3.58
2018-07-30T12:00:20.781Z,3.10
2018-07-30T12:01:25.594Z,3.27
2018-07-30T12:02:30.055Z,2.95
2018-07-30T12:03:35.135Z,3.37
2018-07-30T12:04:38.904Z,3.20
2018-07-30T12:05:42.846Z,3.20
2018-07-30T12:06:47.264Z,3.47
2018-07-30T12:07:51.337Z,7.85
2018-07-30T12:08:55.476Z,6.87
2018-07-30T12:09:59.535Z,5.30
2018-07-30T12:11:03.677Z,4.72
2018-07-30T12:12:07.768Z,3.77
2018-07-30T12:13:11.859Z,4.20
2018-07-30T12:14:16.000Z,4.22
2018-07-30T12:15:20.050Z,4.10
2018-07-30T12:16:24.215Z,3.50
2018-07-30T12:17:28.281Z,3.85
2018-07-30T12:18:32.303Z,3.30
2018-07-30T12:19:36.441Z,3.75
2018-07-30T12:20:40.553Z,3.95
2018-07-30T12:21:44.767Z,3.40
2018-07-30T12:22:48.773Z,4.03
2018-07-30T12:23:52.824Z,3.42
2018-07-30T12:24:56.972Z,3.40
2018-07-30T12:26:01.070Z,3.45
2018-07-30T12:27:04.842Z,3.33
2018-07-30T12:28:10.092Z,3.80
2018-07-30T12:29:15.081Z,3.50
2018-07-30T12:30:19.224Z,3.42
2018-07-30T12:31:23.254Z,3.20
2018-07-30T12:32:27.423Z,3.85
2018-07-30T12:33:32.259Z,3.75
2018-07-30T12:34:36.132Z,4.70
2018-07-30T12:35:40.221Z,3.58
2018-07-30T12:36:44.346Z,5.85
2018-07-30T12:37:48.175Z,4.10
2018-07-30T12:38:51.983Z,4.40
2018-07-30T12:39:56.006Z,3.45
2018-07-30T12:41:00.081Z,3.67
2018-07-30T12:42:04.185Z,3.60
2018-07-30T12:43:08.453Z,3.80
2018-07-30T12:44:12.482Z,3.62
2018-07-30T12:45:20.595Z,3.37
2018-07-30T12:46:24.560Z,3.00
2018-07-30T12:47:28.701Z,3.20
2018-07-30T12:48:32.978Z,3.25
2018-07-30T12:49:36.764Z,3.40
2018-07-30T12:50:40.755Z,3.20
2018-07-30T12:51:44.781Z,3.08
2018-07-30T12:52:48.814Z,3.33
2018-07-30T12:53:52.686Z,3.05
2018-07-30T12:54:56.827Z,3.25
2018-07-30T12:56:00.904Z,3.42
2018-07-30T12:57:04.995Z,3.20
2018-07-30T12:58:09.002Z,3.20
2018-07-30T12:59:13.061Z,3.10
2018-07-30T13:00:17.144Z,3.42
2018-07-30T13:01:21.274Z,3.02
2018-07-30T13:02:25.378Z,3.30
2018-07-30T13:03:29.418Z,3.00
2018-07-30T13:04:33.490Z,3.20
2018-07-30T13:05:38.288Z,3.47
2018-07-30T13:06:42.408Z,3.12
2018-07-30T13:07:46.679Z,3.25
2018-07-30T13:08:50.768Z,3.15
2018-07-30T13:09:54.818Z,3.20
2018-07-30T13:10:58.881Z,3.35
2018-07-30T13:12:03.009Z,3.35
2018-07-30T13:13:07.111Z,3.60
2018-07-30T13:14:11.204Z,3.52
2018-07-30T13:15:15.288Z,3.45
2018-07-30T13:16:19.318Z,3.20
2018-07-30T13:17:23.435Z,3.40
2018-07-30T13:18:27.725Z,3.30
2018-07-30T13:19:31.868Z,3.80
2018-07-30T13:20:36.074Z,3.47
2018-07-30T13:21:40.302Z,3.17
2018-07-30T13:22:44.611Z,3.30
2018-07-30T13:23:48.712Z,3.47
2018-07-30T13:24:53.056Z,3.50
2018-07-30T13:25:57.192Z,4.67
2018-07-30T13:27:01.249Z,3.42
2018-07-30T13:28:05.299Z,3.17
2018-07-30T13:29:10.206Z,3.30
2018-07-30T13:30:14.794Z,3.05
2018-07-30T13:31:18.944Z,4.40
2018-07-30T13:32:22.975Z,3.95
2018-07-30T13:33:27.034Z,3.47
2018-07-30T13:34:31.153Z,3.12
2018-07-30T13:35:34.979Z,3.27
2018-07-30T13:36:39.095Z,3.45
2018-07-30T13:37:43.555Z,3.60
2018-07-30T13:38:47.743Z,3.65
2018-07-30T13:39:51.796Z,3.17
2018-07-30T13:40:55.905Z,3.15
2018-07-30T13:42:00.092Z,3.42
2018-07-30T13:43:04.169Z,3.27
2018-07-30T13:44:08.199Z,3.12
2018-07-30T13:45:12.292Z,3.45
2018-07-30T13:46:16.415Z,3.33
2018-07-30T13:47:20.524Z,3.60
2018-07-30T13:48:24.588Z,3.58
2018-07-30T13:49:28.690Z,3.22
2018-07-30T13:50:32.836Z,3.50
2018-07-30T13:51:36.968Z,3.13
2018-07-30T13:52:41.037Z,2.97
2018-07-30T13:53:45.080Z,3.87
2018-07-30T13:54:49.352Z,3.25
2018-07-30T13:55:53.483Z,3.17
2018-07-30T13:56:57.598Z,3.58
2018-07-30T13:58:01.763Z,3.23
2018-07-30T13:59:05.918Z,3.50
2018-07-30T14:00:10.948Z,3.17
2018-07-30T14:01:15.059Z,3.12
2018-07-30T14:02:19.659Z,3.27
2018-07-30T14:03:23.963Z,3.05
2018-07-30T14:04:27.765Z,3.75
2018-07-30T14:05:31.979Z,3.85
2018-07-30T14:06:36.374Z,3.98
2018-07-30T14:07:40.382Z,3.75
2018-07-30T14:08:44.447Z,3.52
2018-07-30T14:09:48.712Z,3.55
2018-07-30T14:10:52.789Z,3.62
2018-07-30T14:11:56.958Z,3.27
2018-07-30T14:13:01.044Z,3.08
2018-07-30T14:14:05.063Z,3.50